createdAt,value
2023-01-23T00:00:32.609Z,1028.27
2023-01-23T00:01:32.616Z,1028.30
2023-01-23T00:02:32.669Z,1028.28
2023-01-23T00:03:32.573Z,1028.28
2023-01-23T00:04:32.566Z,1028.28
2023-01-23T00:05:32.554Z,1028.28
2023-01-23T00:06:32.554Z,1028.23
2023-01-23T00:07:32.537Z,1028.30
2023-01-23T00:08:32.527Z,1028.29
2023-01-23T00:09:32.528Z,1028.29
2023-01-23T00:10:32.511Z,1028.28
2023-01-23T00:11:32.507Z,1028.26
2023-01-23T00:12:32.493Z,1028.32
2023-01-23T00:13:32.486Z,1028.34
2023-01-23T00:14:32.471Z,1028.31
2023-01-23T00:15:32.588Z,1028.33
2023-01-23T00:16:32.489Z,1028.32
2023-01-23T00:17:32.443Z,1028.31
2023-01-23T00:18:32.435Z,1028.28
2023-01-23T00:19:32.423Z,1028.30
2023-01-23T00:20:32.418Z,1028.23
2023-01-23T00:21:32.437Z,1028.27
2023-01-23T00:22:32.399Z,1028.31
2023-01-23T00:23:32.386Z,1028.33
2023-01-23T00:24:32.380Z,1028.34
2023-01-23T00:25:32.384Z,1028.30
2023-01-23T00:26:32.400Z,1028.30
2023-01-23T00:27:32.347Z,1028.31
2023-01-23T00:28:32.370Z,1028.34
2023-01-23T00:29:32.365Z,1028.29
2023-01-23T00:30:32.411Z,1028.30
2023-01-23T00:31:32.591Z,1028.32
2023-01-23T00:32:32.307Z,1028.28
2023-01-23T00:33:32.295Z,1028.30
2023-01-23T00:34:32.283Z,1028.28
2023-01-23T00:35:32.272Z,1028.29
2023-01-23T00:36:32.715Z,1028.30
2023-01-23T00:37:32.253Z,1028.31
2023-01-23T00:38:32.258Z,1028.33
2023-01-23T00:39:32.232Z,1028.33
2023-01-23T00:40:32.224Z,1028.31
2023-01-23T00:41:32.215Z,1028.33
2023-01-23T00:42:32.209Z,1028.30
2023-01-23T00:43:32.191Z,1028.31
2023-01-23T00:44:32.185Z,1028.38
2023-01-23T00:45:32.176Z,1028.39
2023-01-23T00:46:32.207Z,1028.36
2023-01-23T00:47:32.275Z,1028.33
2023-01-23T00:48:32.150Z,1028.31
2023-01-23T00:49:32.141Z,1028.29
2023-01-23T00:50:32.127Z,1028.30
2023-01-23T00:51:32.150Z,1028.31
2023-01-23T00:52:32.112Z,1028.32
2023-01-23T00:53:32.100Z,1028.33
2023-01-23T00:54:32.090Z,1028.32
2023-01-23T00:55:32.081Z,1028.39
2023-01-23T00:56:32.078Z,1028.35
2023-01-23T00:57:32.065Z,1028.34
2023-01-23T00:58:32.054Z,1028.37
2023-01-23T00:59:32.059Z,1028.36
2023-01-23T01:00:32.041Z,1028.38
2023-01-23T01:01:32.094Z,1028.39
2023-01-23T01:02:32.054Z,1028.38
2023-01-23T01:03:32.125Z,1028.37
2023-01-23T01:04:31.993Z,1028.39
2023-01-23T01:05:31.985Z,1028.39
2023-01-23T01:06:31.979Z,1028.37
2023-01-23T01:07:31.961Z,1028.35
2023-01-23T01:08:31.953Z,1028.35
2023-01-23T01:09:31.943Z,1028.36
2023-01-23T01:10:31.936Z,1028.37
2023-01-23T01:11:31.925Z,1028.39
2023-01-23T01:12:31.916Z,1028.41
2023-01-23T01:13:31.906Z,1028.43
2023-01-23T01:14:31.896Z,1028.45
2023-01-23T01:15:31.888Z,1028.49
2023-01-23T01:16:31.931Z,1028.47
2023-01-23T01:17:31.868Z,1028.42
2023-01-23T01:18:31.858Z,1028.42
2023-01-23T01:19:31.956Z,1028.38
2023-01-23T01:20:31.847Z,1028.36
2023-01-23T01:21:31.827Z,1028.33
2023-01-23T01:22:31.821Z,1028.33
2023-01-23T01:23:31.812Z,1028.30
2023-01-23T01:24:31.800Z,1028.36
2023-01-23T01:25:31.790Z,1028.37
2023-01-23T01:26:31.784Z,1028.44
2023-01-23T01:27:31.769Z,1028.45
2023-01-23T01:28:31.760Z,1028.45
2023-01-23T01:29:31.750Z,1028.47
2023-01-23T01:30:31.745Z,1028.48
2023-01-23T01:31:31.856Z,1028.48
2023-01-23T01:32:31.721Z,1028.46
2023-01-23T01:33:31.712Z,1028.52
2023-01-23T01:34:31.715Z,1028.50
2023-01-23T01:35:31.812Z,1028.53
2023-01-23T01:36:31.689Z,1028.55
2023-01-23T01:37:31.670Z,1028.52
2023-01-23T01:38:31.675Z,1028.52
2023-01-23T01:39:31.654Z,1028.53
2023-01-23T01:40:31.647Z,1028.53
2023-01-23T01:41:31.638Z,1028.50
2023-01-23T01:42:31.629Z,1028.51
2023-01-23T01:43:31.618Z,1028.50
2023-01-23T01:44:31.606Z,1028.49
2023-01-23T01:45:31.595Z,1028.50
2023-01-23T01:46:31.623Z,1028.52
2023-01-23T01:47:31.573Z,1028.51
2023-01-23T01:48:31.581Z,1028.51
2023-01-23T01:49:31.567Z,1028.53
2023-01-23T01:50:31.550Z,1028.51
2023-01-23T01:51:31.708Z,1028.53
2023-01-23T01:52:31.534Z,1028.56
2023-01-23T01:53:31.521Z,1028.58
2023-01-23T01:54:31.513Z,1028.56
2023-01-23T01:55:31.496Z,1028.63
2023-01-23T01:56:31.497Z,1028.61
2023-01-23T01:57:31.475Z,1028.66
2023-01-23T01:58:31.471Z,1028.69
2023-01-23T01:59:31.456Z,1028.72
2023-01-23T02:00:31.483Z,1028.66
2023-01-23T02:01:31.455Z,1028.68
2023-01-23T02:02:31.440Z,1028.69
2023-01-23T02:03:31.417Z,1028.75
2023-01-23T02:04:31.443Z,1028.77
2023-01-23T02:05:31.399Z,1028.80
2023-01-23T02:06:31.413Z,1028.79
2023-01-23T02:07:31.500Z,1028.78
2023-01-23T02:08:31.383Z,1028.74
2023-01-23T02:09:31.362Z,1028.76
2023-01-23T02:10:31.370Z,1028.81
2023-01-23T02:11:31.341Z,1028.77
2023-01-23T02:12:31.334Z,1028.76
2023-01-23T02:13:31.321Z,1028.76
2023-01-23T02:14:31.330Z,1028.75
2023-01-23T02:15:31.311Z,1028.78
2023-01-23T02:16:31.354Z,1028.74
2023-01-23T02:17:31.308Z,1028.76
2023-01-23T02:18:31.281Z,1028.78
2023-01-23T02:19:31.308Z,1028.79
2023-01-23T02:20:31.254Z,1028.75
2023-01-23T02:21:31.251Z,1028.74
2023-01-23T02:22:31.234Z,1028.67
2023-01-23T02:23:31.342Z,1028.68
2023-01-23T02:24:31.214Z,1028.60
2023-01-23T02:25:31.203Z,1028.64
2023-01-23T02:26:31.196Z,1028.64
2023-01-23T02:27:31.183Z,1028.68
2023-01-23T02:28:31.177Z,1028.67
2023-01-23T02:29:31.170Z,1028.70
2023-01-23T02:30:31.158Z,1028.64
2023-01-23T02:31:31.288Z,1028.69
2023-01-23T02:32:31.136Z,1028.68
2023-01-23T02:33:31.126Z,1028.66
2023-01-23T02:34:31.119Z,1028.70
2023-01-23T02:35:31.120Z,1028.69
2023-01-23T02:36:31.101Z,1028.66
2023-01-23T02:37:31.087Z,1028.66
2023-01-23T02:38:31.077Z,1028.70
2023-01-23T02:39:31.187Z,1028.71
2023-01-23T02:40:31.056Z,1028.69
2023-01-23T02:41:31.055Z,1028.62
2023-01-23T02:42:31.036Z,1028.63
2023-01-23T02:43:31.025Z,1028.63
2023-01-23T02:44:31.019Z,1028.65
2023-01-23T02:45:31.032Z,1028.63
2023-01-23T02:46:31.000Z,1028.62
2023-01-23T02:47:30.987Z,1028.60
2023-01-23T02:48:30.979Z,1028.58
2023-01-23T02:49:30.968Z,1028.59
2023-01-23T02:50:30.959Z,1028.51
2023-01-23T02:51:30.945Z,1028.52
2023-01-23T02:52:30.940Z,1028.51
2023-01-23T02:53:30.925Z,1028.52
2023-01-23T02:54:30.937Z,1028.53
2023-01-23T02:55:31.026Z,1028.50
2023-01-23T02:56:30.903Z,1028.49
2023-01-23T02:57:30.889Z,1028.47
2023-01-23T02:58:30.879Z,1028.48
2023-01-23T02:59:30.866Z,1028.46
2023-01-23T03:00:30.856Z,1028.43
2023-01-23T03:01:30.846Z,1028.41
2023-01-23T03:02:30.914Z,1028.40
2023-01-23T03:03:30.829Z,1028.41
2023-01-23T03:04:30.816Z,1028.41
2023-01-23T03:05:30.809Z,1028.35
2023-01-23T03:06:30.799Z,1028.31
2023-01-23T03:07:30.785Z,1028.36
2023-01-23T03:08:30.779Z,1028.38
2023-01-23T03:09:30.766Z,1028.38
2023-01-23T03:10:30.759Z,1028.34
2023-01-23T03:11:30.878Z,1028.34
2023-01-23T03:12:30.740Z,1028.36
2023-01-23T03:13:30.727Z,1028.35
2023-01-23T03:14:30.721Z,1028.38
2023-01-23T03:15:30.711Z,1028.41
2023-01-23T03:16:30.750Z,1028.47
2023-01-23T03:17:30.708Z,1028.50
2023-01-23T03:18:30.682Z,1028.49
2023-01-23T03:19:30.668Z,1028.48
2023-01-23T03:20:30.662Z,1028.48
2023-01-23T03:21:30.651Z,1028.48
2023-01-23T03:22:30.640Z,1028.47
2023-01-23T03:23:30.630Z,1028.52
2023-01-23T03:24:30.624Z,1028.49
2023-01-23T03:25:30.612Z,1028.51
2023-01-23T03:26:30.603Z,1028.51
2023-01-23T03:27:30.705Z,1028.54
2023-01-23T03:28:30.584Z,1028.63
2023-01-23T03:29:30.572Z,1028.60
2023-01-23T03:30:30.620Z,1028.62
2023-01-23T03:31:30.598Z,1028.62
2023-01-23T03:32:30.544Z,1028.60
2023-01-23T03:33:30.552Z,1028.62
2023-01-23T03:34:30.525Z,1028.60
2023-01-23T03:35:30.513Z,1028.62
2023-01-23T03:36:30.507Z,1028.64
2023-01-23T03:37:30.496Z,1028.66
2023-01-23T03:38:30.489Z,1028.66
2023-01-23T03:39:30.483Z,1028.67
2023-01-23T03:40:30.468Z,1028.67
2023-01-23T03:41:30.455Z,1028.73
2023-01-23T03:42:30.797Z,1028.68
2023-01-23T03:43:30.452Z,1028.75
2023-01-23T03:44:30.429Z,1028.76
2023-01-23T03:45:30.462Z,1028.79
2023-01-23T03:46:30.425Z,1028.83
2023-01-23T03:47:30.394Z,1028.80
2023-01-23T03:48:30.387Z,1028.82
2023-01-23T03:49:30.398Z,1028.82
2023-01-23T03:50:30.383Z,1028.84
2023-01-23T03:51:30.354Z,1028.79
2023-01-23T03:52:30.348Z,1028.77
2023-01-23T03:53:30.336Z,1028.78
2023-01-23T03:54:30.344Z,1028.77
2023-01-23T03:55:30.320Z,1028.77
2023-01-23T03:56:30.310Z,1028.77
2023-01-23T03:57:30.308Z,1028.76
2023-01-23T03:58:30.288Z,1028.77
2023-01-23T03:59:30.404Z,1028.77
2023-01-23T04:00:30.271Z,1028.80
2023-01-23T04:01:30.258Z,1028.79
2023-01-23T04:02:30.366Z,1028.83
2023-01-23T04:03:30.245Z,1028.84
2023-01-23T04:04:30.229Z,1028.86
2023-01-23T04:05:30.228Z,1028.84
2023-01-23T04:06:30.209Z,1028.81
2023-01-23T04:07:30.200Z,1028.79
2023-01-23T04:08:30.204Z,1028.86
2023-01-23T04:09:30.184Z,1028.84
2023-01-23T04:10:30.177Z,1028.84
2023-01-23T04:11:30.180Z,1028.84
2023-01-23T04:12:30.153Z,1028.85
2023-01-23T04:13:30.144Z,1028.82
2023-01-23T04:14:30.139Z,1028.84
2023-01-23T04:15:30.242Z,1028.86
2023-01-23T04:16:30.167Z,1028.85
2023-01-23T04:17:30.103Z,1028.88
2023-01-23T04:18:30.102Z,1028.85
2023-01-23T04:19:30.083Z,1028.84
2023-01-23T04:20:30.101Z,1028.82
2023-01-23T04:21:30.070Z,1028.82
2023-01-23T04:22:30.063Z,1028.79
2023-01-23T04:23:30.056Z,1028.77
2023-01-23T04:24:30.036Z,1028.73
2023-01-23T04:25:30.029Z,1028.75
2023-01-23T04:26:30.015Z,1028.74
2023-01-23T04:27:30.006Z,1028.72
2023-01-23T04:28:29.996Z,1028.73
2023-01-23T04:29:29.987Z,1028.78
2023-01-23T04:30:30.009Z,1028.75
2023-01-23T04:31:30.268Z,1028.74
2023-01-23T04:32:29.958Z,1028.73
2023-01-23T04:33:29.957Z,1028.72
2023-01-23T04:34:29.937Z,1028.74
2023-01-23T04:35:29.927Z,1028.71
2023-01-23T04:36:29.918Z,1028.68
2023-01-23T04:37:29.910Z,1028.67
2023-01-23T04:38:29.914Z,1028.64
2023-01-23T04:39:29.889Z,1028.65
2023-01-23T04:40:29.883Z,1028.64
2023-01-23T04:41:29.873Z,1028.62
2023-01-23T04:42:29.875Z,1028.61
2023-01-23T04:43:29.852Z,1028.59
2023-01-23T04:44:29.840Z,1028.57
2023-01-23T04:45:29.829Z,1028.59
2023-01-23T04:46:29.823Z,1028.62
2023-01-23T04:47:29.931Z,1028.63
2023-01-23T04:48:29.808Z,1028.70
2023-01-23T04:49:29.793Z,1028.74
2023-01-23T04:50:29.784Z,1028.79
2023-01-23T04:51:29.776Z,1028.81
2023-01-23T04:52:29.788Z,1028.82
2023-01-23T04:53:29.752Z,1028.81
2023-01-23T04:54:29.744Z,1028.86
2023-01-23T04:55:29.745Z,1028.88
2023-01-23T04:56:29.738Z,1028.89
2023-01-23T04:57:29.724Z,1028.91
2023-01-23T04:58:29.716Z,1028.90
2023-01-23T04:59:29.724Z,1028.92
2023-01-23T05:00:29.692Z,1028.82
2023-01-23T05:01:29.738Z,1028.81
2023-01-23T05:02:29.733Z,1028.78
2023-01-23T05:03:29.776Z,1028.79
2023-01-23T05:04:29.648Z,1028.81
2023-01-23T05:05:29.642Z,1028.76
2023-01-23T05:06:29.626Z,1028.75
2023-01-23T05:07:29.620Z,1028.76
2023-01-23T05:08:29.607Z,1028.71
2023-01-23T05:09:29.604Z,1028.72
2023-01-23T05:10:29.590Z,1028.76
2023-01-23T05:11:29.594Z,1028.78
2023-01-23T05:12:29.575Z,1028.75
2023-01-23T05:13:29.562Z,1028.72
2023-01-23T05:14:29.555Z,1028.75
2023-01-23T05:15:30.868Z,1028.77
2023-01-23T05:16:29.537Z,1028.75
2023-01-23T05:17:29.523Z,1028.75
2023-01-23T05:18:29.514Z,1028.72
2023-01-23T05:19:29.633Z,1028.72
2023-01-23T05:20:29.496Z,1028.71
2023-01-23T05:21:29.490Z,1028.74
2023-01-23T05:22:29.473Z,1028.73
2023-01-23T05:23:29.466Z,1028.78
2023-01-23T05:24:29.462Z,1028.78
2023-01-23T05:25:29.459Z,1028.80
2023-01-23T05:26:29.441Z,1028.83
2023-01-23T05:27:29.448Z,1028.88
2023-01-23T05:28:29.416Z,1028.92
2023-01-23T05:29:29.408Z,1028.93
2023-01-23T05:30:29.431Z,1028.90
2023-01-23T05:31:29.511Z,1028.91
2023-01-23T05:32:29.381Z,1028.90
2023-01-23T05:33:29.369Z,1028.88
2023-01-23T05:34:29.365Z,1028.88
2023-01-23T05:35:29.469Z,1028.91
2023-01-23T05:36:29.339Z,1028.88
2023-01-23T05:37:29.336Z,1028.89
2023-01-23T05:38:29.327Z,1028.90
2023-01-23T05:39:29.315Z,1028.86
2023-01-23T05:40:29.318Z,1028.84
2023-01-23T05:41:29.295Z,1028.87
2023-01-23T05:42:29.283Z,1028.88
2023-01-23T05:43:29.423Z,1028.88
2023-01-23T05:44:29.262Z,1028.82
2023-01-23T05:45:29.255Z,1028.89
2023-01-23T05:46:29.311Z,1028.84
2023-01-23T05:47:29.233Z,1028.87
2023-01-23T05:48:29.227Z,1028.84
2023-01-23T05:49:29.216Z,1028.88
2023-01-23T05:50:29.226Z,1028.88
2023-01-23T05:51:29.310Z,1028.89
2023-01-23T05:52:29.193Z,1028.92
2023-01-23T05:53:29.181Z,1028.91
2023-01-23T05:54:29.176Z,1028.96
2023-01-23T05:55:29.174Z,1028.92
2023-01-23T05:56:29.150Z,1028.96
2023-01-23T05:57:29.155Z,1028.98
2023-01-23T05:58:29.131Z,1028.98
2023-01-23T05:59:29.129Z,1028.95
2023-01-23T06:00:29.113Z,1028.97
2023-01-23T06:01:29.109Z,1028.99
2023-01-23T06:02:29.109Z,1029.04
2023-01-23T06:03:29.159Z,1029.03
2023-01-23T06:04:29.070Z,1029.03
2023-01-23T06:05:29.066Z,1029.10
2023-01-23T06:06:29.053Z,1029.08
2023-01-23T06:07:29.172Z,1029.09
2023-01-23T06:08:29.031Z,1029.13
2023-01-23T06:09:29.026Z,1029.12
2023-01-23T06:10:29.019Z,1029.10
2023-01-23T06:11:29.021Z,1029.08
2023-01-23T06:12:28.996Z,1029.13
2023-01-23T06:13:28.988Z,1029.17
2023-01-23T06:14:28.983Z,1029.16
2023-01-23T06:15:29.014Z,1029.13
2023-01-23T06:16:28.966Z,1029.18
2023-01-23T06:17:28.946Z,1029.18
2023-01-23T06:18:28.937Z,1029.16
2023-01-23T06:19:28.924Z,1029.22
2023-01-23T06:20:28.916Z,1029.23
2023-01-23T06:21:28.905Z,1029.23
2023-01-23T06:22:31.311Z,1029.28
2023-01-23T06:23:29.011Z,1029.20
2023-01-23T06:24:28.884Z,1029.26
2023-01-23T06:25:28.866Z,1029.21
2023-01-23T06:26:28.863Z,1029.24
2023-01-23T06:27:29.009Z,1029.23
2023-01-23T06:28:28.842Z,1029.26
2023-01-23T06:29:28.837Z,1029.25
2023-01-23T06:30:28.907Z,1029.26
2023-01-23T06:31:28.896Z,1029.39
2023-01-23T06:32:28.800Z,1029.39
2023-01-23T06:33:28.793Z,1029.40
2023-01-23T06:34:28.791Z,1029.35
2023-01-23T06:35:28.788Z,1029.42
2023-01-23T06:36:28.763Z,1029.41
2023-01-23T06:37:28.754Z,1029.45
2023-01-23T06:38:28.754Z,1029.42
2023-01-23T06:39:28.848Z,1029.40
2023-01-23T06:40:28.725Z,1029.40
2023-01-23T06:41:28.716Z,1029.41
2023-01-23T06:42:28.712Z,1029.43
2023-01-23T06:43:28.706Z,1029.44
2023-01-23T06:44:28.689Z,1029.50
2023-01-23T06:45:28.684Z,1029.47
2023-01-23T06:46:28.758Z,1029.46
2023-01-23T06:47:28.656Z,1029.45
2023-01-23T06:48:29.000Z,1029.48
2023-01-23T06:49:28.636Z,1029.47
2023-01-23T06:50:28.629Z,1029.55
2023-01-23T06:51:28.727Z,1029.53
2023-01-23T06:52:28.606Z,1029.58
2023-01-23T06:53:28.600Z,1029.60
2023-01-23T06:54:28.588Z,1029.58
2023-01-23T06:55:28.698Z,1029.59
2023-01-23T06:56:28.588Z,1029.60
2023-01-23T06:57:28.581Z,1029.60
2023-01-23T06:58:28.560Z,1029.60
2023-01-23T06:59:28.539Z,1029.59
2023-01-23T07:00:28.533Z,1029.59
2023-01-23T07:01:28.549Z,1029.62
2023-01-23T07:02:28.529Z,1029.64
2023-01-23T07:03:28.500Z,1029.67
2023-01-23T07:04:28.491Z,1029.67
2023-01-23T07:05:28.484Z,1029.70
2023-01-23T07:06:28.472Z,1029.72
2023-01-23T07:07:28.491Z,1029.75
2023-01-23T07:08:28.458Z,1029.70
2023-01-23T07:09:28.445Z,1029.67
2023-01-23T07:10:28.432Z,1029.68
2023-01-23T07:11:28.539Z,1029.72
2023-01-23T07:12:28.417Z,1029.75
2023-01-23T07:13:28.408Z,1029.76
2023-01-23T07:14:28.395Z,1029.79
2023-01-23T07:15:28.383Z,1029.79
2023-01-23T07:16:28.463Z,1029.85
2023-01-23T07:17:28.371Z,1029.87
2023-01-23T07:18:28.352Z,1029.93
2023-01-23T07:19:28.347Z,1029.94
2023-01-23T07:20:28.338Z,1029.94
2023-01-23T07:21:28.337Z,1030.00
2023-01-23T07:22:28.316Z,1030.02
2023-01-23T07:23:28.318Z,1029.98
2023-01-23T07:24:28.299Z,1030.00
2023-01-23T07:25:28.291Z,1029.99
2023-01-23T07:26:28.287Z,1030.01
2023-01-23T07:27:28.438Z,1030.03
2023-01-23T07:28:28.261Z,1030.04
2023-01-23T07:29:28.250Z,1030.07
2023-01-23T07:30:28.278Z,1030.09
2023-01-23T07:31:28.263Z,1030.06
2023-01-23T07:32:28.222Z,1030.09
2023-01-23T07:33:28.226Z,1030.05
2023-01-23T07:34:28.213Z,1030.09
2023-01-23T07:35:28.192Z,1030.07
2023-01-23T07:36:28.186Z,1030.10
2023-01-23T07:37:28.172Z,1030.11
2023-01-23T07:38:28.166Z,1030.12
2023-01-23T07:39:28.190Z,1030.15
2023-01-23T07:40:28.142Z,1030.16
2023-01-23T07:41:28.136Z,1030.16
2023-01-23T07:42:28.127Z,1030.14
2023-01-23T07:43:28.229Z,1030.18
2023-01-23T07:44:28.103Z,1030.20
2023-01-23T07:45:28.096Z,1030.16
2023-01-23T07:46:28.122Z,1030.19
2023-01-23T07:47:28.079Z,1030.16
2023-01-23T07:48:28.067Z,1030.19
2023-01-23T07:49:28.070Z,1030.18
2023-01-23T07:50:28.050Z,1030.20
2023-01-23T07:51:28.109Z,1030.22
2023-01-23T07:52:28.027Z,1030.24
2023-01-23T07:53:28.019Z,1030.21
2023-01-23T07:54:28.012Z,1030.24
2023-01-23T07:55:27.999Z,1030.25
2023-01-23T07:56:27.989Z,1030.30
2023-01-23T07:57:27.985Z,1030.29
2023-01-23T07:58:27.978Z,1030.34
2023-01-23T07:59:28.110Z,1030.35
2023-01-23T08:00:29.910Z,1030.40
2023-01-23T08:01:27.947Z,1030.38
2023-01-23T08:02:27.947Z,1030.43
2023-01-23T08:03:28.128Z,1030.48
2023-01-23T08:04:27.923Z,1030.47
2023-01-23T08:05:27.919Z,1030.47
2023-01-23T08:06:27.898Z,1030.45
2023-01-23T08:07:27.888Z,1030.46
2023-01-23T08:08:27.883Z,1030.43
2023-01-23T08:09:27.876Z,1030.42
2023-01-23T08:10:27.904Z,1030.42
2023-01-23T08:11:27.872Z,1030.44
2023-01-23T08:12:27.839Z,1030.47
2023-01-23T08:13:27.828Z,1030.44
2023-01-23T08:14:27.825Z,1030.44
2023-01-23T08:15:27.918Z,1030.44
2023-01-23T08:16:27.870Z,1030.47
2023-01-23T08:17:27.791Z,1030.46
2023-01-23T08:18:27.782Z,1030.51
2023-01-23T08:19:27.782Z,1030.45
2023-01-23T08:20:27.864Z,1030.43
2023-01-23T08:21:27.767Z,1030.41
2023-01-23T08:22:27.742Z,1030.38
2023-01-23T08:23:27.741Z,1030.40
2023-01-23T08:24:27.726Z,1030.40
2023-01-23T08:25:27.727Z,1030.45
2023-01-23T08:26:27.704Z,1030.42
2023-01-23T08:27:27.691Z,1030.42
2023-01-23T08:28:27.691Z,1030.38
2023-01-23T08:29:27.677Z,1030.42
2023-01-23T08:30:27.670Z,1030.37
2023-01-23T08:31:27.936Z,1030.35
2023-01-23T08:32:27.650Z,1030.36
2023-01-23T08:33:27.636Z,1030.35
2023-01-23T08:34:27.630Z,1030.33
2023-01-23T08:35:27.623Z,1030.32
2023-01-23T08:36:27.608Z,1030.37
2023-01-23T08:37:27.599Z,1030.34
2023-01-23T08:38:27.594Z,1030.36
2023-01-23T08:39:27.577Z,1030.41
2023-01-23T08:40:27.571Z,1030.38
2023-01-23T08:41:27.565Z,1030.37
2023-01-23T08:42:27.576Z,1030.35
2023-01-23T08:43:27.544Z,1030.35
2023-01-23T08:44:27.532Z,1030.40
2023-01-23T08:45:27.572Z,1030.37
2023-01-23T08:46:27.513Z,1030.36
2023-01-23T08:47:27.620Z,1030.36
2023-01-23T08:48:27.504Z,1030.39
2023-01-23T08:49:27.487Z,1030.44
2023-01-23T08:50:27.475Z,1030.45
2023-01-23T08:51:27.544Z,1030.51
2023-01-23T08:52:27.457Z,1030.54
2023-01-23T08:53:27.648Z,1030.54
2023-01-23T08:54:27.443Z,1030.56
2023-01-23T08:55:27.430Z,1030.61
2023-01-23T08:56:27.424Z,1030.60
2023-01-23T08:57:27.411Z,1030.61
2023-01-23T08:58:27.402Z,1030.63
2023-01-23T08:59:27.389Z,1030.63
2023-01-23T09:00:27.385Z,1030.63
2023-01-23T09:01:27.386Z,1030.64
2023-01-23T09:02:27.442Z,1030.63
2023-01-23T09:03:27.473Z,1030.58
2023-01-23T09:04:27.368Z,1030.59
2023-01-23T09:05:27.334Z,1030.62
2023-01-23T09:06:27.351Z,1030.59
2023-01-23T09:07:27.314Z,1030.62
2023-01-23T09:08:27.309Z,1030.61
2023-01-23T09:09:27.299Z,1030.59
2023-01-23T09:10:27.290Z,1030.57
2023-01-23T09:11:27.295Z,1030.60
2023-01-23T09:12:27.275Z,1030.54
2023-01-23T09:13:27.259Z,1030.60
2023-01-23T09:14:27.256Z,1030.57
2023-01-23T09:15:27.238Z,1030.57
2023-01-23T09:16:27.273Z,1030.58
2023-01-23T09:17:27.221Z,1030.56
2023-01-23T09:18:27.211Z,1030.57
2023-01-23T09:19:27.313Z,1030.56
2023-01-23T09:20:27.194Z,1030.55
2023-01-23T09:21:27.184Z,1030.63
2023-01-23T09:22:27.173Z,1030.63
2023-01-23T09:23:27.167Z,1030.62
2023-01-23T09:24:27.175Z,1030.60
2023-01-23T09:25:27.145Z,1030.65
2023-01-23T09:26:27.139Z,1030.65
2023-01-23T09:27:27.124Z,1030.65
2023-01-23T09:28:27.117Z,1030.64
2023-01-23T09:29:27.121Z,1030.66
2023-01-23T09:30:27.117Z,1030.64
2023-01-23T09:31:27.129Z,1030.66
2023-01-23T09:32:27.083Z,1030.67
2023-01-23T09:33:27.103Z,1030.68
2023-01-23T09:34:27.071Z,1030.69
2023-01-23T09:35:27.071Z,1030.70
2023-01-23T09:36:41.791Z,1030.72
2023-01-23T09:37:27.033Z,1030.73
2023-01-23T09:38:27.030Z,1030.72
2023-01-23T09:39:27.013Z,1030.69
2023-01-23T09:40:27.010Z,1030.69
2023-01-23T09:41:26.994Z,1030.66
2023-01-23T09:42:27.028Z,1030.71
2023-01-23T09:43:26.977Z,1030.71
2023-01-23T09:44:26.975Z,1030.69
2023-01-23T09:45:26.962Z,1030.73
2023-01-23T09:46:26.949Z,1030.73
2023-01-23T09:47:26.938Z,1030.74
2023-01-23T09:48:26.934Z,1030.76
2023-01-23T09:49:26.930Z,1030.78
2023-01-23T09:50:26.912Z,1030.83
2023-01-23T09:51:27.095Z,1030.80
2023-01-23T09:52:26.904Z,1030.80
2023-01-23T09:53:26.895Z,1030.86
2023-01-23T09:54:26.881Z,1030.82
2023-01-23T09:55:26.863Z,1030.83
2023-01-23T09:56:26.856Z,1030.81
2023-01-23T09:57:26.846Z,1030.84
2023-01-23T09:58:26.838Z,1030.87
2023-01-23T09:59:26.826Z,1030.87
2023-01-23T10:00:26.820Z,1030.89
2023-01-23T10:01:26.858Z,1030.87
2023-01-23T10:02:27.435Z,1030.90
2023-01-23T10:03:26.791Z,1030.90
2023-01-23T10:04:26.779Z,1030.89
2023-01-23T10:05:26.772Z,1030.87
2023-01-23T10:06:26.764Z,1030.86
2023-01-23T10:07:26.873Z,1030.87
2023-01-23T10:08:26.743Z,1030.87
2023-01-23T10:09:26.736Z,1030.86
2023-01-23T10:10:26.726Z,1030.90
2023-01-23T10:11:26.715Z,1030.89
2023-01-23T10:12:26.713Z,1030.92
2023-01-23T10:13:26.697Z,1030.90
2023-01-23T10:14:26.695Z,1030.91
2023-01-23T10:15:26.679Z,1030.91
2023-01-23T10:16:27.002Z,1030.86
2023-01-23T10:17:26.721Z,1030.89
2023-01-23T10:18:26.655Z,1030.87
2023-01-23T10:19:26.649Z,1030.84
2023-01-23T10:20:26.639Z,1030.88
2023-01-23T10:21:26.622Z,1030.88
2023-01-23T10:22:26.614Z,1030.84
2023-01-23T10:23:26.731Z,1030.88
2023-01-23T10:24:26.597Z,1030.90
2023-01-23T10:25:26.604Z,1030.91
2023-01-23T10:26:26.584Z,1030.90
2023-01-23T10:27:26.573Z,1030.94
2023-01-23T10:28:26.558Z,1030.95
2023-01-23T10:29:26.547Z,1030.96
2023-01-23T10:30:26.615Z,1030.92
2023-01-23T10:31:26.696Z,1030.94
2023-01-23T10:32:26.532Z,1030.93
2023-01-23T10:33:26.513Z,1030.94
2023-01-23T10:34:26.504Z,1030.96
2023-01-23T10:35:26.493Z,1030.98
2023-01-23T10:36:27.414Z,1030.97
2023-01-23T10:37:26.475Z,1031.01
2023-01-23T10:38:26.477Z,1030.99
2023-01-23T10:39:26.578Z,1031.02
2023-01-23T10:40:26.449Z,1030.98
2023-01-23T10:41:26.450Z,1030.95
2023-01-23T10:42:26.443Z,1030.94
2023-01-23T10:43:26.419Z,1030.91
2023-01-23T10:44:26.415Z,1030.88
2023-01-23T10:45:26.404Z,1030.86
2023-01-23T10:46:26.471Z,1030.89
2023-01-23T10:47:27.989Z,1030.91
2023-01-23T10:48:26.373Z,1030.92
2023-01-23T10:49:26.367Z,1030.94
2023-01-23T10:50:26.358Z,1030.96
2023-01-23T10:51:26.399Z,1031.00
2023-01-23T10:52:26.346Z,1030.98
2023-01-23T10:53:26.329Z,1030.95
2023-01-23T10:54:33.998Z,1030.94
2023-01-23T10:55:26.373Z,1030.96
2023-01-23T10:56:26.308Z,1030.92
2023-01-23T10:57:26.298Z,1030.95
2023-01-23T10:58:26.488Z,1031.00
2023-01-23T10:59:26.285Z,1031.00
2023-01-23T11:00:26.277Z,1031.00
2023-01-23T11:01:26.283Z,1030.97
2023-01-23T11:02:26.523Z,1031.01
2023-01-23T11:03:26.242Z,1030.97
2023-01-23T11:04:26.239Z,1030.96
2023-01-23T11:05:26.219Z,1030.93
2023-01-23T11:06:26.258Z,1030.90
2023-01-23T11:07:26.210Z,1030.87
2023-01-23T11:08:26.191Z,1030.86
2023-01-23T11:09:26.181Z,1030.90
2023-01-23T11:10:26.173Z,1030.87
2023-01-23T11:11:26.288Z,1030.84
2023-01-23T11:12:26.155Z,1030.86
2023-01-23T11:13:26.148Z,1030.88
2023-01-23T11:14:26.142Z,1030.88
2023-01-23T11:15:26.127Z,1030.87
2023-01-23T11:16:26.119Z,1030.82
2023-01-23T11:17:26.108Z,1030.85
2023-01-23T11:18:26.102Z,1030.85
2023-01-23T11:19:26.089Z,1030.84
2023-01-23T11:20:26.102Z,1030.81
2023-01-23T11:21:26.080Z,1030.83
2023-01-23T11:22:26.074Z,1030.81
2023-01-23T11:23:26.070Z,1030.80
2023-01-23T11:24:38.371Z,1030.79
2023-01-23T11:25:26.077Z,1030.78
2023-01-23T11:26:26.037Z,1030.76
2023-01-23T11:27:26.136Z,1030.78
2023-01-23T11:28:26.011Z,1030.80
2023-01-23T11:29:25.999Z,1030.77
2023-01-23T11:30:25.992Z,1030.76
2023-01-23T11:31:26.137Z,1030.67
2023-01-23T11:32:26.209Z,1030.66
2023-01-23T11:33:25.973Z,1030.67
2023-01-23T11:34:25.955Z,1030.62
2023-01-23T11:35:25.949Z,1030.59
2023-01-23T11:36:25.937Z,1030.64
2023-01-23T11:37:25.925Z,1030.64
2023-01-23T11:38:30.756Z,1030.67
2023-01-23T11:39:25.907Z,1030.66
2023-01-23T11:40:25.899Z,1030.63
2023-01-23T11:41:25.893Z,1030.64
2023-01-23T11:42:28.368Z,1030.62
2023-01-23T11:43:25.998Z,1030.64
2023-01-23T11:44:26.694Z,1030.63
2023-01-23T11:45:25.851Z,1030.62
2023-01-23T11:46:25.963Z,1030.57
2023-01-23T11:47:25.836Z,1030.60
2023-01-23T11:48:25.826Z,1030.57
2023-01-23T11:49:25.822Z,1030.56
2023-01-23T11:50:25.811Z,1030.50
2023-01-23T11:51:25.880Z,1030.50
2023-01-23T11:52:25.791Z,1030.49
2023-01-23T11:53:36.808Z,1030.48
2023-01-23T11:54:25.788Z,1030.49
2023-01-23T11:55:25.763Z,1030.51
2023-01-23T11:56:25.777Z,1030.51
2023-01-23T11:57:25.753Z,1030.49
2023-01-23T11:58:25.744Z,1030.52
2023-01-23T11:59:25.863Z,1030.54
2023-01-23T12:00:25.758Z,1030.55
2023-01-23T12:01:25.715Z,1030.56
2023-01-23T12:02:25.744Z,1030.57
2023-01-23T12:03:26.110Z,1030.58
2023-01-23T12:04:25.687Z,1030.61
2023-01-23T12:05:25.681Z,1030.61